Time;durP1;ratioP1;P1;durP2;ratioP2;P2;SDS_P1;SDS_P2;PMS_P1;PMS_P2;Temp;Humidity;BMP_temperature;BMP_pressure;BME280_temperature;BME280_humidity;BME280_pressure;Samples;Min_cycle;Max_cycle;Signal;HPM_P1;HPM_P2
2024/01/09 00:00:13;;;;;;;;;;;;;;;4.48;65.87;102663.50;7283014;19;20536;-69
2024/01/09 00:02:40;;;;;;;;;;;;;;;4.49;65.29;102667.81;7302199;19;19922;-68
2024/01/09 00:05:08;;;;;;;;;;;;;;;4.51;65.33;102667.75;7291600;19;20575;-68
2024/01/09 00:07:35;;;;;;;;;;;;;;;4.44;65.34;102667.16;7295741;19;20182;-68
2024/01/09 00:10:01;;;;;;;;;;;;;;;4.48;66.93;102652.22;7284436;19;19926;-68
2024/01/09 00:12:28;;;;;;;;;;;;;;;4.44;66.23;102651.53;7282964;19;19927;-69
2024/01/09 00:14:55;;;;;;;;;;;;;;;4.50;66.48;102663.44;7286751;19;19926;-70
2024/01/09 00:17:22;;;;;;;;;;;;;;;4.47;65.89;102653.16;7287942;19;19918;-70
2024/01/09 00:19:49;;;;;;;;;;;;;;;4.44;65.40;102666.31;7296114;19;20038;-71
2024/01/09 00:22:15;;;;;;;;;;;;;;;4.47;66.60;102653.16;7297409;19;20286;-69
2024/01/09 00:24:42;;;;;;;;;;;;;;;4.47;65.55;102653.97;7272408;19;19930;-69
2024/01/09 00:27:09;;;;;;;;;;;;;;;4.43;66.83;102656.78;7283197;19;19922;-68
2024/01/09 00:29:36;;;;;;;;;;;;;;;4.32;66.64;102645.09;7283298;19;20009;-70
2024/01/09 00:32:03;;;;;;;;;;;;;;;4.30;66.38;102646.94;7295389;19;20652;-70
2024/01/09 00:34:33;;;;;;;;;;;;;;;4.38;67.97;102659.59;7297426;19;20264;-69
2024/01/09 00:37:00;;;;;;;;;;;;;;;4.37;66.91;102650.09;7302054;19;19931;-70
2024/01/09 00:39:26;;;;;;;;;;;;;;;4.41;68.62;102643.84;7300655;19;19925;-69
2024/01/09 00:41:53;;;;;;;;;;;;;;;4.44;68.21;102645.47;7284831;19;19923;-70
2024/01/09 00:44:20;;;;;;;;;;;;;;;4.46;67.06;102646.25;7283499;19;19922;-68
2024/01/09 00:46:47;;;;;;;;;;;;;;;4.50;66.67;102643.44;7294461;19;19987;-70
2024/01/09 00:49:14;;;;;;;;;;;;;;;4.43;65.35;102649.81;7294942;19;20291;-69
2024/01/09 00:51:41;;;;;;;;;;;;;;;4.43;67.47;102646.38;7299444;19;19962;-68
2024/01/09 00:54:08;;;;;;;;;;;;;;;4.41;66.26;102637.78;7292463;19;20728;-69
2024/01/09 00:56:35;;;;;;;;;;;;;;;4.46;66.37;102646.25;7288381;19;20938;-69
2024/01/09 00:59:02;;;;;;;;;;;;;;;4.46;66.04;102643.66;7293016;19;20541;-68
2024/01/09 01:01:29;;;;;;;;;;;;;;;4.49;66.30;102651.31;7278386;19;20423;-69
2024/01/09 01:03:56;;;;;;;;;;;;;;;4.39;65.85;102645.69;7290169;19;20332;-69
2024/01/09 01:06:23;;;;;;;;;;;;;;;4.42;66.53;102645.53;7282868;19;20850;-69
2024/01/09 01:08:50;;;;;;;;;;;;;;;4.44;68.18;102641.09;7279668;19;20525;-69
2024/01/09 01:11:17;;;;;;;;;;;;;;;4.46;67.41;102643.66;7301751;19;19925;-69
2024/01/09 01:13:47;;;;;;;;;;;;;;;4.44;67.19;102643.72;7305425;19;20709;-70
2024/01/09 01:16:14;;;;;;;;;;;;;;;4.40;67.25;102641.31;7297459;19;20002;-69
2024/01/09 01:18:41;;;;;;;;;;;;;;;4.41;67.36;102638.66;7283483;19;20463;-69
2024/01/09 01:21:08;;;;;;;;;;;;;;;4.33;67.09;102635.50;7286211;19;19927;-69
2024/01/09 01:23:35;;;;;;;;;;;;;;;4.32;67.67;102637.28;7283137;19;20263;-68
2024/01/09 01:26:02;;;;;;;;;;;;;;;4.24;68.69;102636.78;7285702;19;20303;-69
2024/01/09 01:28:29;;;;;;;;;;;;;;;4.28;69.81;102635.72;7291688;19;20534;-69
2024/01/09 01:30:56;;;;;;;;;;;;;;;4.34;68.88;102638.97;7283640;19;20720;-69
2024/01/09 01:33:23;;;;;;;;;;;;;;;4.40;67.67;102643.91;7293454;19;19918;-71
2024/01/09 01:35:50;;;;;;;;;;;;;;;4.32;67.66;102636.41;7286546;19;19923;-71
2024/01/09 01:38:18;;;;;;;;;;;;;;;4.28;67.42;102634.88;7274629;19;20810;-70
2024/01/09 01:40:45;;;;;;;;;;;;;;;4.24;68.27;102634.16;7291372;19;19963;-70
2024/01/09 01:43:12;;;;;;;;;;;;;;;4.29;68.40;102650.44;7286530;19;19922;-69
2024/01/09 01:45:39;;;;;;;;;;;;;;;4.30;67.94;102633.91;7283165;19;20337;-69
2024/01/09 01:48:06;;;;;;;;;;;;;;;4.27;67.58;102646.19;7284132;19;20268;-69
2024/01/09 01:50:34;;;;;;;;;;;;;;;4.28;67.56;102647.91;7292002;19;20038;-69
2024/01/09 01:53:02;;;;;;;;;;;;;;;4.24;69.13;102648.94;7288026;19;19934;-69
2024/01/09 01:55:29;;;;;;;;;;;;;;;4.30;68.76;102651.28;7289025;19;20545;-69
2024/01/09 01:57:58;;;;;;;;;;;;;;;4.36;68.41;102645.81;7295000;19;19925;-71
2024/01/09 02:00:25;;;;;;;;;;;;;;;4.32;68.21;102639.03;7294983;19;20154;-69
2024/01/09 02:02:53;;;;;;;;;;;;;;;4.29;68.35;102649.59;7304469;19;19923;-68
2024/01/09 02:05:22;;;;;;;;;;;;;;;4.35;69.75;102643.28;7295712;19;20896;-70
2024/01/09 02:07:50;;;;;;;;;;;;;;;4.37;68.85;102641.47;7280372;19;19911;-68
2024/01/09 02:10:16;;;;;;;;;;;;;;;4.42;68.99;102644.72;7280472;19;19922;-68
2024/01/09 02:12:43;;;;;;;;;;;;;;;4.42;69.12;102639.50;7286635;19;20018;-69
2024/01/09 02:15:10;;;;;;;;;;;;;;;4.47;68.09;102638.34;7290616;19;19954;-69
2024/01/09 02:17:38;;;;;;;;;;;;;;;4.43;67.74;102638.56;7298844;19;20010;-70
2024/01/09 02:20:07;;;;;;;;;;;;;;;4.33;67.63;102640.72;7276372;19;19915;-68
2024/01/09 02:22:34;;;;;;;;;;;;;;;4.30;68.02;102625.25;7270324;19;21331;-70
2024/01/09 02:25:02;;;;;;;;;;;;;;;4.32;68.42;102636.41;7280814;19;20002;-70
2024/01/09 02:27:38;;;;;;;;;;;;;;;4.38;69.76;102637.91;7290224;19;20790;-71
2024/01/09 02:30:06;;;;;;;;;;;;;;;4.38;68.62;102641.38;7291266;19;19946;-70
2024/01/09 02:32:33;;;;;;;;;;;;;;;4.38;68.94;102637.91;7277151;19;19925;-69
2024/01/09 02:35:00;;;;;;;;;;;;;;;4.40;68.40;102636.09;7304509;19;20230;-69
2024/01/09 02:37:27;;;;;;;;;;;;;;;4.49;68.73;102636.53;7301093;19;20030;-72
2024/01/09 02:40:00;;;;;;;;;;;;;;;4.45;66.95;102631.53;7303963;19;20167;-69
2024/01/09 02:42:27;;;;;;;;;;;;;;;4.40;67.82;102628.28;7294970;19;21952;-70
2024/01/09 02:44:54;;;;;;;;;;;;;;;4.40;68.10;102631.75;7298930;19;20447;-69
2024/01/09 02:47:21;;;;;;;;;;;;;;;4.42;68.16;102624.69;7306223;19;20030;-69
2024/01/09 02:49:48;;;;;;;;;;;;;;;4.47;69.34;102640.13;7291815;19;21797;-69
2024/01/09 02:52:16;;;;;;;;;;;;;;;4.47;68.54;102633.13;7293609;19;20467;-70
2024/01/09 02:54:43;;;;;;;;;;;;;;;4.45;67.43;102627.16;7288336;19;19925;-69
2024/01/09 02:57:11;;;;;;;;;;;;;;;4.48;66.88;102632.22;7282875;19;19907;-71
2024/01/09 02:59:38;;;;;;;;;;;;;;;4.46;68.43;102621.03;7294168;19;19918;-70
2024/01/09 03:02:05;;;;;;;;;;;;;;;4.44;67.90;102622.88;7289969;19;19938;-69
2024/01/09 03:04:32;;;;;;;;;;;;;;;4.43;67.00;102628.13;7289081;19;19930;-69
2024/01/09 03:06:59;;;;;;;;;;;;;;;4.40;67.74;102623.91;7299211;19;20582;-70
2024/01/09 03:09:26;;;;;;;;;;;;;;;4.37;67.67;102613.63;7295197;19;20597;-69
2024/01/09 03:11:53;;;;;;;;;;;;;;;4.38;68.12;102614.47;7317105;19;22225;-70
2024/01/09 03:14:20;;;;;;;;;;;;;;;4.39;67.44;102606.59;7319659;19;19919;-69
2024/01/09 03:16:48;;;;;;;;;;;;;;;4.41;67.68;102601.31;7317000;19;20218;-70
2024/01/09 03:19:15;;;;;;;;;;;;;;;4.41;69.20;102607.38;7319484;19;20298;-69
2024/01/09 03:21:42;;;;;;;;;;;;;;;4.39;68.78;102596.16;7303694;19;20312;-69
2024/01/09 03:24:09;;;;;;;;;;;;;;;4.39;67.69;102598.78;7286032;19;19919;-69
2024/01/09 03:26:36;;;;;;;;;;;;;;;4.43;69.18;102591.66;7294661;19;20013;-71
2024/01/09 03:29:04;;;;;;;;;;;;;;;4.50;68.93;102600.91;7298498;19;19938;-70
2024/01/09 03:31:31;;;;;;;;;;;;;;;4.46;67.40;102599.34;7300842;19;20256;-69
2024/01/09 03:33:58;;;;;;;;;;;;;;;4.35;67.27;102597.22;7294248;19;20152;-71
2024/01/09 03:36:26;;;;;;;;;;;;;;;4.32;67.71;102602.56;7288604;19;21207;-70
2024/01/09 03:38:55;;;;;;;;;;;;;;;4.33;68.60;102601.66;7290243;19;21354;-70
2024/01/09 03:41:22;;;;;;;;;;;;;;;4.30;68.36;102614.81;7283724;19;20474;-69
2024/01/09 03:43:49;;;;;;;;;;;;;;;4.27;67.83;102609.72;7286984;19;20257;-68
2024/01/09 03:46:16;;;;;;;;;;;;;;;4.21;68.32;102600.47;7286818;19;20260;-68
2024/01/09 03:48:43;;;;;;;;;;;;;;;4.23;69.36;102609.03;7298250;19;19929;-72
2024/01/09 03:51:10;;;;;;;;;;;;;;;4.23;69.61;102603.81;7293009;19;20116;-70
2024/01/09 03:53:36;;;;;;;;;;;;;;;4.26;69.19;102602.84;7295919;19;20800;-69
2024/01/09 03:56:04;;;;;;;;;;;;;;;4.29;68.79;102592.28;7282540;19;22042;-71
2024/01/09 03:58:31;;;;;;;;;;;;;;;4.29;68.73;102600.94;7296702;19;19922;-71
2024/01/09 04:00:57;;;;;;;;;;;;;;;4.28;69.17;102595.78;7299470;19;20002;-68
2024/01/09 04:03:26;;;;;;;;;;;;;;;4.28;70.12;102587.97;7283063;19;20569;-70
2024/01/09 04:05:53;;;;;;;;;;;;;;;4.29;68.73;102595.75;7278011;19;19930;-69
2024/01/09 04:08:20;;;;;;;;;;;;;;;4.28;69.24;102588.84;7285061;19;19923;-70
2024/01/09 04:10:47;;;;;;;;;;;;;;;4.25;70.16;102588.97;7291817;19;20524;-70
2024/01/09 04:13:14;;;;;;;;;;;;;;;4.23;71.20;102590.78;7287178;19;19918;-71
2024/01/09 04:15:41;;;;;;;;;;;;;;;4.29;71.03;102589.69;7296917;19;20291;-68
2024/01/09 04:18:08;;;;;;;;;;;;;;;4.34;70.92;102589.47;7303333;19;19923;-71
2024/01/09 04:20:35;;;;;;;;;;;;;;;4.36;69.94;102588.50;7303037;19;20242;-69
2024/01/09 04:23:02;;;;;;;;;;;;;;;4.32;69.81;102584.31;7293616;19;19942;-69
2024/01/09 04:25:29;;;;;;;;;;;;;;;4.34;70.07;102579.06;7292285;19;19934;-73
2024/01/09 04:27:56;;;;;;;;;;;;;;;4.34;70.18;102586.88;7295629;19;20352;-72
2024/01/09 04:30:23;;;;;;;;;;;;;;;4.32;70.12;102590.38;7291219;19;20897;-70
2024/01/09 04:32:50;;;;;;;;;;;;;;;4.32;71.94;102594.75;7284754;19;19929;-70
2024/01/09 04:35:17;;;;;;;;;;;;;;;4.35;70.01;102591.16;7293530;19;19918;-69
2024/01/09 04:37:43;;;;;;;;;;;;;;;4.35;70.46;102592.00;7298470;19;19919;-69
2024/01/09 04:40:10;;;;;;;;;;;;;;;4.36;70.37;102598.94;7293472;19;22477;-68
2024/01/09 04:42:37;;;;;;;;;;;;;;;4.35;69.66;102586.81;7289829;19;19965;-70
2024/01/09 04:45:03;;;;;;;;;;;;;;;4.30;70.00;102600.03;7287674;19;20144;-69
2024/01/09 04:47:30;;;;;;;;;;;;;;;4.28;69.57;102591.44;7283302;19;20741;-69
2024/01/09 04:49:57;;;;;;;;;;;;;;;4.29;69.91;102594.88;7287883;19;20010;-70
2024/01/09 04:52:24;;;;;;;;;;;;;;;4.35;70.93;102598.97;7284282;19;20509;-68
2024/01/09 04:54:51;;;;;;;;;;;;;;;4.33;69.63;102593.84;7283280;19;19919;-71
2024/01/09 04:57:18;;;;;;;;;;;;;;;4.36;70.41;102598.94;7287318;19;20022;-68
2024/01/09 04:59:45;;;;;;;;;;;;;;;4.34;69.17;102595.53;7286104;19;21452;-69
2024/01/09 05:02:12;;;;;;;;;;;;;;;4.29;69.25;102600.94;7284367;19;21108;-69
2024/01/09 05:04:39;;;;;;;;;;;;;;;4.29;70.68;102605.31;7284052;19;19929;-68
2024/01/09 05:07:06;;;;;;;;;;;;;;;4.32;70.32;102605.16;7288471;19;21354;-69
2024/01/09 05:09:33;;;;;;;;;;;;;;;4.26;70.15;102601.09;7293922;19;19929;-69
2024/01/09 05:12:00;;;;;;;;;;;;;;;4.24;70.20;102602.06;7290596;19;20015;-69
2024/01/09 05:14:27;;;;;;;;;;;;;;;4.28;71.47;102603.63;7295511;19;20634;-68
2024/01/09 05:16:53;;;;;;;;;;;;;;;4.30;71.30;102601.81;7286230;19;20437;-70
2024/01/09 05:19:20;;;;;;;;;;;;;;;4.29;70.72;102598.34;7284085;19;20298;-71
2024/01/09 05:21:48;;;;;;;;;;;;;;;4.27;70.80;102602.75;7276688;19;19923;-70
2024/01/09 05:24:15;;;;;;;;;;;;;;;4.25;70.85;102599.41;7290515;19;20022;-70
2024/01/09 05:26:42;;;;;;;;;;;;;;;4.23;71.84;102602.97;7288628;19;20422;-69
2024/01/09 05:29:09;;;;;;;;;;;;;;;4.24;71.77;102600.31;7299362;19;19923;-73
2024/01/09 05:31:41;;;;;;;;;;;;;;;4.24;71.02;102604.66;7308563;19;19926;-68
2024/01/09 05:34:08;;;;;;;;;;;;;;;4.22;71.34;102601.28;7294128;19;19948;-71
2024/01/09 05:36:35;;;;;;;;;;;;;;;4.13;71.93;102604.28;7279135;19;19937;-68
2024/01/09 05:39:02;;;;;;;;;;;;;;;4.14;72.03;102598.19;7300175;19;22068;-72
2024/01/09 05:41:29;;;;;;;;;;;;;;;4.14;72.25;102606.84;7301115;19;19998;-70
2024/01/09 05:43:57;;;;;;;;;;;;;;;4.18;72.02;102597.97;7292051;19;20699;-70
2024/01/09 05:46:24;;;;;;;;;;;;;;;4.24;72.29;102602.06;7289872;19;19919;-69
2024/01/09 05:48:51;;;;;;;;;;;;;;;4.27;72.48;102602.75;7288499;19;20011;-69
2024/01/09 05:51:18;;;;;;;;;;;;;;;4.28;72.77;102594.03;7282375;19;19927;-69
2024/01/09 05:53:47;;;;;;;;;;;;;;;4.27;71.80;102600.16;7294116;19;20027;-70
2024/01/09 05:56:17;;;;;;;;;;;;;;;4.24;72.17;102604.66;7307529;19;20078;-70
2024/01/09 05:58:44;;;;;;;;;;;;;;;4.20;72.02;102606.56;7280766;19;20541;-71
2024/01/09 06:01:11;;;;;;;;;;;;;;;4.20;73.19;102603.13;7290617;19;20831;-70
2024/01/09 06:03:38;;;;;;;;;;;;;;;4.19;73.03;102606.63;7289864;19;20464;-69
2024/01/09 06:06:05;;;;;;;;;;;;;;;4.24;73.79;102607.28;7299007;19;19931;-70
2024/01/09 06:08:32;;;;;;;;;;;;;;;4.24;72.20;102605.50;7287724;19;19922;-70
2024/01/09 06:10:59;;;;;;;;;;;;;;;4.25;71.64;102606.38;7301451;19;19915;-70
2024/01/09 06:13:26;;;;;;;;;;;;;;;4.23;71.80;102606.44;7299803;19;19919;-69
2024/01/09 06:15:52;;;;;;;;;;;;;;;4.25;72.43;102602.00;7293257;19;20360;-69
2024/01/09 06:18:19;;;;;;;;;;;;;;;4.27;73.01;102600.16;7287411;19;20990;-70
2024/01/09 06:20:47;;;;;;;;;;;;;;;4.34;71.70;102618.97;7301743;19;19919;-69
2024/01/09 06:23:14;;;;;;;;;;;;;;;4.25;70.64;102615.03;7303286;19;19953;-70
2024/01/09 06:25:40;;;;;;;;;;;;;;;4.24;71.34;102610.72;7294391;19;19975;-69
2024/01/09 06:28:08;;;;;;;;;;;;;;;4.21;71.22;102618.69;7292586;19;19918;-70
2024/01/09 06:30:37;;;;;;;;;;;;;;;4.19;72.18;102624.88;7291302;19;19933;-70
2024/01/09 06:33:04;;;;;;;;;;;;;;;4.24;71.67;102625.50;7295564;19;19925;-69
2024/01/09 06:35:32;;;;;;;;;;;;;;;4.15;71.13;102618.94;7296280;19;20045;-69
2024/01/09 06:37:59;;;;;;;;;;;;;;;4.17;71.49;102624.06;7294433;19;21022;-68
2024/01/09 06:40:26;;;;;;;;;;;;;;;4.15;71.68;102621.56;7281641;19;20505;-69
2024/01/09 06:42:53;;;;;;;;;;;;;;;4.17;71.61;102627.53;7287135;19;20522;-69
2024/01/09 06:45:20;;;;;;;;;;;;;;;4.20;71.67;102632.63;7280305;19;19934;-70
2024/01/09 06:47:46;;;;;;;;;;;;;;;4.14;71.53;102627.69;7296092;19;20329;-69
2024/01/09 06:50:13;;;;;;;;;;;;;;;4.08;72.06;102627.09;7305648;19;19914;-69
2024/01/09 06:52:58;;;;;;;;;;;;;;;4.13;72.66;102622.53;7291803;19;20581;-70
2024/01/09 06:55:25;;;;;;;;;;;;;;;4.14;71.90;102621.63;7283082;19;19939;-70
2024/01/09 06:57:51;;;;;;;;;;;;;;;4.12;72.61;102626.88;7299178;19;19939;-71
2024/01/09 07:00:18;;;;;;;;;;;;;;;4.19;73.00;102617.06;7296488;19;19922;-71
2024/01/09 07:02:45;;;;;;;;;;;;;;;4.14;72.07;102630.28;7311072;19;19930;-68
2024/01/09 07:05:13;;;;;;;;;;;;;;;4.16;72.48;102625.00;7283514;19;19914;-69
2024/01/09 07:07:41;;;;;;;;;;;;;;;4.13;73.69;102628.56;7283931;19;19918;-72
2024/01/09 07:10:16;;;;;;;;;;;;;;;4.21;73.36;102631.72;7303543;19;19942;-68
2024/01/09 07:12:43;;;;;;;;;;;;;;;4.24;72.83;102630.72;7290808;19;20537;-69
2024/01/09 07:15:13;;;;;;;;;;;;;;;4.20;72.38;102627.41;7303774;19;20185;-67
2024/01/09 07:17:42;;;;;;;;;;;;;;;4.17;72.00;102631.88;7294032;19;19990;-69
2024/01/09 07:20:09;;;;;;;;;;;;;;;4.10;73.16;102633.09;7296966;19;19942;-71
2024/01/09 07:22:37;;;;;;;;;;;;;;;4.01;72.64;102630.88;7285015;19;19925;-68
2024/01/09 07:25:04;;;;;;;;;;;;;;;4.03;73.09;102636.84;7286897;19;19919;-69
2024/01/09 07:27:31;;;;;;;;;;;;;;;4.03;73.27;102637.69;7280255;19;19956;-71
2024/01/09 07:29:58;;;;;;;;;;;;;;;4.04;73.99;102638.56;7288593;19;20368;-69
2024/01/09 07:32:25;;;;;;;;;;;;;;;4.11;73.42;102638.25;7296006;19;20426;-69
2024/01/09 07:34:53;;;;;;;;;;;;;;;4.17;73.27;102644.91;7301334;19;19944;-69
2024/01/09 07:37:22;;;;;;;;;;;;;;;4.19;73.23;102637.88;7294644;19;19915;-69
2024/01/09 07:39:49;;;;;;;;;;;;;;;4.18;73.35;102638.78;7298734;19;19922;-68
2024/01/09 07:42:17;;;;;;;;;;;;;;;4.22;73.55;102635.13;7283561;19;20490;-68
2024/01/09 07:44:44;;;;;;;;;;;;;;;4.22;73.79;102635.13;7284420;19;20629;-69
2024/01/09 07:47:12;;;;;;;;;;;;;;;4.17;74.08;102642.31;7287969;19;19915;-69
2024/01/09 07:49:39;;;;;;;;;;;;;;;4.17;73.07;102644.91;7290171;19;22340;-68
2024/01/09 07:52:07;;;;;;;;;;;;;;;4.20;74.24;102636.97;7289094;19;19919;-69
2024/01/09 07:54:33;;;;;;;;;;;;;;;4.22;75.24;102653.38;7283232;19;19919;-69
2024/01/09 07:57:01;;;;;;;;;;;;;;;4.23;73.41;102648.09;7304309;19;19930;-70
2024/01/09 07:59:28;;;;;;;;;;;;;;;4.28;73.19;102647.91;7290979;19;22496;-69
2024/01/09 08:01:55;;;;;;;;;;;;;;;4.25;73.87;102648.03;7289435;19;20366;-68
2024/01/09 08:04:22;;;;;;;;;;;;;;;4.28;72.51;102655.72;7290615;19;20496;-70
2024/01/09 08:06:50;;;;;;;;;;;;;;;4.28;73.43;102653.09;7289698;19;19915;-69
2024/01/09 08:09:18;;;;;;;;;;;;;;;4.21;72.62;102659.53;7286450;19;20194;-68
2024/01/09 08:11:45;;;;;;;;;;;;;;;4.19;73.52;102659.56;7289496;19;19923;-68
2024/01/09 08:14:13;;;;;;;;;;;;;;;4.18;73.53;102650.06;7288415;19;19931;-69
2024/01/09 08:16:41;;;;;;;;;;;;;;;4.25;73.52;102664.53;7309731;19;20734;-68
2024/01/09 08:19:08;;;;;;;;;;;;;;;4.29;74.02;102655.66;7312244;19;20268;-69
2024/01/09 08:21:36;;;;;;;;;;;;;;;4.36;73.39;102656.25;7302373;19;19995;-68
2024/01/09 08:24:08;;;;;;;;;;;;;;;4.32;73.06;102651.25;7304952;19;19918;-67
2024/01/09 08:26:35;;;;;;;;;;;;;;;4.21;72.93;102659.53;7298231;19;20352;-70
2024/01/09 08:29:03;;;;;;;;;;;;;;;4.17;73.89;102653.56;7288145;19;19927;-68
2024/01/09 08:31:30;;;;;;;;;;;;;;;4.16;73.30;102664.06;7300591;19;20392;-68
2024/01/09 08:33:57;;;;;;;;;;;;;;;4.17;75.22;102656.19;7292145;19;19934;-67
2024/01/09 08:36:25;;;;;;;;;;;;;;;4.10;73.91;102673.00;7287709;19;19922;-67
2024/01/09 08:38:52;;;;;;;;;;;;;;;4.13;75.14;102664.19;7307933;19;20508;-70
2024/01/09 08:41:20;;;;;;;;;;;;;;;4.15;74.22;102673.66;7289848;19;19927;-67
2024/01/09 08:43:48;;;;;;;;;;;;;;;4.17;74.51;102676.16;7297190;19;19931;-69
2024/01/09 08:46:15;;;;;;;;;;;;;;;4.19;74.02;102674.34;7279859;19;20946;-68
2024/01/09 08:48:42;;;;;;;;;;;;;;;4.20;76.91;102678.66;7284348;19;20018;-68
2024/01/09 08:51:09;;;;;;;;;;;;;;;4.22;76.47;102682.03;7285624;19;19919;-68
2024/01/09 08:53:43;;;;;;;;;;;;;;;4.32;75.72;102689.38;7292379;19;19975;-67
2024/01/09 08:56:10;;;;;;;;;;;;;;;4.39;75.57;102681.31;7295642;19;21072;-67
2024/01/09 08:58:37;;;;;;;;;;;;;;;4.36;73.22;102691.88;7288062;19;19926;-68
2024/01/09 09:01:05;;;;;;;;;;;;;;;4.37;73.87;102702.19;7296563;19;19919;-69
2024/01/09 09:03:32;;;;;;;;;;;;;;;4.35;73.58;102692.78;7298339;19;19934;-70
2024/01/09 09:05:59;;;;;;;;;;;;;;;4.29;73.78;102689.53;7302062;19;21080;-70
2024/01/09 09:08:27;;;;;;;;;;;;;;;4.20;73.87;102704.69;7309128;19;20575;-67
2024/01/09 09:10:54;;;;;;;;;;;;;;;4.15;74.23;102691.88;7306589;19;19910;-70
2024/01/09 09:13:21;;;;;;;;;;;;;;;4.09;74.80;102697.34;7305253;19;20589;-68
2024/01/09 09:15:49;;;;;;;;;;;;;;;4.09;74.84;102696.50;7299878;19;19960;-67
2024/01/09 09:18:16;;;;;;;;;;;;;;;4.13;75.47;102698.91;7296091;19;19918;-68
2024/01/09 09:20:44;;;;;;;;;;;;;;;4.14;76.26;102697.16;7291403;19;20914;-68
2024/01/09 09:23:11;;;;;;;;;;;;;;;4.23;74.93;102692.38;7294605;19;19919;-68
2024/01/09 09:25:41;;;;;;;;;;;;;;;4.26;74.69;102691.41;7318589;19;19923;-70
2024/01/09 09:28:08;;;;;;;;;;;;;;;4.30;75.33;102693.81;7288146;19;20449;-67
2024/01/09 09:30:36;;;;;;;;;;;;;;;4.29;74.88;102686.06;7299908;19;20014;-69
2024/01/09 09:33:03;;;;;;;;;;;;;;;4.30;76.62;102679.94;7297436;19;19926;-68
2024/01/09 09:35:32;;;;;;;;;;;;;;;4.32;76.05;102677.28;7293984;19;20544;-68
2024/01/09 09:38:09;;;;;;;;;;;;;;;4.35;75.41;102687.56;7277295;19;19918;-69
2024/01/09 09:40:39;;;;;;;;;;;;;;;4.40;74.68;102698.63;7298871;19;19926;-69
2024/01/09 09:43:11;;;;;;;;;;;;;;;4.37;74.70;102678.75;7290276;19;19979;-68
2024/01/09 09:45:39;;;;;;;;;;;;;;;4.38;75.01;102698.69;7290813;19;20605;-68
2024/01/09 09:48:06;;;;;;;;;;;;;;;4.36;75.15;102690.13;7294629;19;20504;-68
2024/01/09 09:50:34;;;;;;;;;;;;;;;4.22;75.31;102705.47;7289092;19;19929;-68
2024/01/09 09:53:01;;;;;;;;;;;;;;;4.11;75.42;102697.28;7280659;19;19947;-68
2024/01/09 09:55:28;;;;;;;;;;;;;;;3.99;76.19;102692.59;7285706;19;19938;-69
2024/01/09 09:57:57;;;;;;;;;;;;;;;4.01;77.07;102689.00;7295504;19;19922;-68
2024/01/09 10:00:24;;;;;;;;;;;;;;;3.98;77.20;102688.28;7288202;19;20622;-68
2024/01/09 10:02:53;;;;;;;;;;;;;;;3.92;77.33;102689.38;7297329;19;22500;-68
2024/01/09 10:05:22;;;;;;;;;;;;;;;3.96;77.54;102680.56;7285983;19;19918;-68
2024/01/09 10:07:52;;;;;;;;;;;;;;;3.97;77.06;102694.38;7295021;19;19919;-69
2024/01/09 10:10:20;;;;;;;;;;;;;;;3.98;77.18;102694.34;7294134;19;19930;-69
2024/01/09 10:12:49;;;;;;;;;;;;;;;3.93;77.48;102685.03;7307417;19;19915;-68
2024/01/09 10:15:17;;;;;;;;;;;;;;;3.94;77.28;102691.94;7296159;19;20468;-68
2024/01/09 10:17:46;;;;;;;;;;;;;;;3.92;77.43;102697.19;7290446;19;20621;-69
2024/01/09 10:20:13;;;;;;;;;;;;;;;3.92;77.30;102691.97;7301698;19;19926;-68
2024/01/09 10:22:41;;;;;;;;;;;;;;;3.92;77.11;102685.94;7289062;19;20643;-69
2024/01/09 10:25:10;;;;;;;;;;;;;;;3.92;77.25;102683.31;7282027;19;19927;-69
2024/01/09 10:27:43;;;;;;;;;;;;;;;3.95;78.06;102688.41;7289174;19;19926;-68
2024/01/09 10:30:12;;;;;;;;;;;;;;;4.03;77.64;102691.53;7294585;19;20460;-67
2024/01/09 10:32:40;;;;;;;;;;;;;;;4.11;77.60;102689.47;7302075;19;19923;-68
2024/01/09 10:35:11;;;;;;;;;;;;;;;4.13;76.38;102693.69;7295665;19;20250;-69
2024/01/09 10:37:39;;;;;;;;;;;;;;;4.10;76.62;102683.41;7311979;19;19978;-68
2024/01/09 10:40:10;;;;;;;;;;;;;;;4.17;77.26;102676.16;7288501;19;19941;-69
2024/01/09 10:42:46;;;;;;;;;;;;;;;4.22;76.51;102669.00;7300620;19;20481;-67
2024/01/09 10:45:16;;;;;;;;;;;;;;;4.29;76.72;102666.06;7290283;19;19922;-68
2024/01/09 10:50:11;;;;;;;;;;;;;;;4.40;74.60;102664.75;7315591;19;19937;-67
2024/01/09 10:52:38;;;;;;;;;;;;;;;4.41;74.14;102680.34;7293720;19;20549;-69
2024/01/09 10:55:08;;;;;;;;;;;;;;;4.44;74.26;102664.56;7297665;19;19919;-68
2024/01/09 10:57:46;;;;;;;;;;;;;;;4.47;74.77;102664.41;7298047;19;22105;-67
2024/01/09 11:00:18;;;;;;;;;;;;;;;4.55;74.72;102669.28;7297632;19;22728;-67
2024/01/09 11:02:45;;;;;;;;;;;;;;;4.66;72.21;102665.31;7311414;19;20154;-68
2024/01/09 11:05:13;;;;;;;;;;;;;;;4.67;72.70;102671.38;7299767;19;19923;-69
2024/01/09 11:07:43;;;;;;;;;;;;;;;4.78;71.18;102665.63;7299952;19;19918;-68
2024/01/09 11:10:16;;;;;;;;;;;;;;;4.84;70.95;102666.22;7319472;19;19918;-69
2024/01/09 11:12:46;;;;;;;;;;;;;;;4.85;70.04;102673.13;7286247;19;19921;-70
2024/01/09 11:15:17;;;;;;;;;;;;;;;4.87;69.68;102665.25;7295988;19;19952;-68
2024/01/09 11:17:50;;;;;;;;;;;;;;;4.89;69.69;102664.22;7295537;19;19930;-68
2024/01/09 11:20:17;;;;;;;;;;;;;;;4.94;69.47;102679.66;7293551;19;20483;-68
2024/01/09 11:22:44;;;;;;;;;;;;;;;4.99;68.42;102660.28;7307402;19;19994;-67
2024/01/09 11:25:16;;;;;;;;;;;;;;;5.02;68.19;102660.16;7292165;19;19942;-66
2024/01/09 11:27:47;;;;;;;;;;;;;;;5.02;68.00;102668.00;7305485;19;20322;-69
2024/01/09 11:30:16;;;;;;;;;;;;;;;5.05;68.19;102653.94;7322206;19;19962;-68
2024/01/09 11:32:45;;;;;;;;;;;;;;;5.04;68.83;102657.47;7310489;19;19927;-67
2024/01/09 11:35:15;;;;;;;;;;;;;;;5.06;68.94;102658.25;7306191;19;21264;-69
2024/01/09 11:37:43;;;;;;;;;;;;;;;5.12;69.19;102656.19;7304248;19;21064;-68
2024/01/09 11:40:12;;;;;;;;;;;;;;;5.15;68.12;102657.81;7279077;19;20040;-68
2024/01/09 11:42:42;;;;;;;;;;;;;;;5.12;68.02;102665.78;7306596;19;20258;-67
2024/01/09 11:45:12;;;;;;;;;;;;;;;5.04;68.18;102660.06;7307540;19;19963;-70
2024/01/09 11:47:42;;;;;;;;;;;;;;;5.06;67.82;102655.63;7302136;19;20442;-69
2024/01/09 11:50:11;;;;;;;;;;;;;;;5.11;68.57;102666.69;7290953;19;20410;-69
2024/01/09 11:52:40;;;;;;;;;;;;;;;5.12;67.35;102660.56;7295571;19;20569;-68
2024/01/09 11:55:07;;;;;;;;;;;;;;;5.07;67.73;102649.50;7283664;19;19918;-67
2024/01/09 11:57:35;;;;;;;;;;;;;;;5.13;68.18;102647.44;7286404;19;19960;-69
2024/01/09 12:00:04;;;;;;;;;;;;;;;5.20;66.90;102654.97;7289228;19;19935;-69
2024/01/09 12:02:33;;;;;;;;;;;;;;;5.18;66.83;102650.66;7301399;19;20462;-67
2024/01/09 12:05:03;;;;;;;;;;;;;;;5.22;67.79;102650.53;7281151;19;19914;-67
2024/01/09 12:07:32;;;;;;;;;;;;;;;5.20;66.77;102648.00;7281365;19;20263;-68
2024/01/09 12:10:03;;;;;;;;;;;;;;;5.09;66.15;102652.88;7269899;19;19929;-68
2024/01/09 12:12:46;;;;;;;;;;;;;;;5.01;66.83;102635.00;7299986;19;20038;-70
2024/01/09 12:15:19;;;;;;;;;;;;;;;5.04;66.48;102654.84;7292162;19;20558;-69
2024/01/09 12:17:55;;;;;;;;;;;;;;;5.04;66.29;102649.63;7292510;19;20623;-67
2024/01/09 12:20:21;;;;;;;;;;;;;;;5.11;67.22;102648.44;7277437;19;19929;-68
2024/01/09 12:22:48;;;;;;;;;;;;;;;5.20;66.54;102644.53;7293051;19;19919;-68
2024/01/09 12:25:16;;;;;;;;;;;;;;;5.17;65.96;102640.34;7285755;19;19931;-67
2024/01/09 12:27:47;;;;;;;;;;;;;;;5.23;66.78;102650.47;7282676;19;20378;-67
2024/01/09 12:30:17;;;;;;;;;;;;;;;5.34;66.57;102636.88;7299634;19;20047;-67
2024/01/09 12:32:48;;;;;;;;;;;;;;;5.32;65.34;102630.91;7287110;19;20146;-68
2024/01/09 12:35:20;;;;;;;;;;;;;;;5.38;66.16;102628.03;7288607;19;19930;-68
2024/01/09 12:37:49;;;;;;;;;;;;;;;5.41;66.68;102628.72;7285713;19;19918;-67
2024/01/09 12:40:16;;;;;;;;;;;;;;;5.48;66.79;102619.66;7290343;19;20470;-67
2024/01/09 12:42:44;;;;;;;;;;;;;;;5.55;66.80;102628.88;7282807;19;21187;-68
2024/01/09 12:45:11;;;;;;;;;;;;;;;5.48;66.79;102614.44;7285041;19;20348;-67
2024/01/09 12:47:38;;;;;;;;;;;;;;;5.53;66.69;102609.84;7290929;19;19951;-66
2024/01/09 12:50:07;;;;;;;;;;;;;;;5.57;66.90;102613.13;7278913;19;19961;-69
2024/01/09 12:52:35;;;;;;;;;;;;;;;5.56;65.62;102617.50;7290829;19;19922;-68